sensor_id;sensor_type;location;lat;lon;timestamp;P1;durP1;ratioP1;P2;durP2;ratioP2
60993;SDS011;47611;54.932;73.338;2022-09-06T00:00:59;11.45;;;4.20;;
60993;SDS011;47611;54.932;73.338;2022-09-06T00:03:26;7.55;;;4.65;;
60993;SDS011;47611;54.932;73.338;2022-09-06T00:05:52;12.00;;;4.60;;
60993;SDS011;47611;54.932;73.338;2022-09-06T00:08:23;11.48;;;4.50;;
60993;SDS011;47611;54.932;73.338;2022-09-06T00:10:57;7.28;;;4.32;;
60993;SDS011;47611;54.932;73.338;2022-09-06T00:13:33;10.55;;;4.88;;
60993;SDS011;47611;54.932;73.338;2022-09-06T00:16:08;8.00;;;4.60;;
60993;SDS011;47611;54.932;73.338;2022-09-06T00:18:35;10.38;;;4.85;;
60993;SDS011;47611;54.932;73.338;2022-09-06T00:21:02;9.02;;;4.30;;
60993;SDS011;47611;54.932;73.338;2022-09-06T00:23:28;9.57;;;4.47;;
60993;SDS011;47611;54.932;73.338;2022-09-06T00:26:00;9.63;;;5.35;;
60993;SDS011;47611;54.932;73.338;2022-09-06T00:28:26;11.38;;;5.35;;
60993;SDS011;47611;54.932;73.338;2022-09-06T00:30:52;12.48;;;5.00;;
60993;SDS011;47611;54.932;73.338;2022-09-06T00:33:18;11.23;;;4.85;;
60993;SDS011;47611;54.932;73.338;2022-09-06T00:35:57;10.73;;;5.20;;
60993;SDS011;47611;54.932;73.338;2022-09-06T00:38:29;10.45;;;5.28;;
60993;SDS011;47611;54.932;73.338;2022-09-06T00:41:00;11.50;;;5.43;;
60993;SDS011;47611;54.932;73.338;2022-09-06T00:43:37;10.75;;;5.05;;
60993;SDS011;47611;54.932;73.338;2022-09-06T00:46:03;9.80;;;5.05;;
60993;SDS011;47611;54.932;73.338;2022-09-06T00:48:29;10.32;;;5.35;;
60993;SDS011;47611;54.932;73.338;2022-09-06T00:50:59;9.85;;;5.32;;
60993;SDS011;47611;54.932;73.338;2022-09-06T00:53:26;10.95;;;5.30;;
60993;SDS011;47611;54.932;73.338;2022-09-06T00:55:52;11.00;;;5.25;;
60993;SDS011;47611;54.932;73.338;2022-09-06T00:58:18;8.63;;;4.80;;
60993;SDS011;47611;54.932;73.338;2022-09-06T01:00:49;13.82;;;5.35;;
60993;SDS011;47611;54.932;73.338;2022-09-06T01:03:15;13.90;;;5.38;;
60993;SDS011;47611;54.932;73.338;2022-09-06T01:08:58;9.93;;;5.00;;
60993;SDS011;47611;54.932;73.338;2022-09-06T01:11:22;8.30;;;4.35;;
60993;SDS011;47611;54.932;73.338;2022-09-06T01:14:08;8.30;;;4.60;;
60993;SDS011;47611;54.932;73.338;2022-09-06T01:16:43;8.82;;;5.00;;
60993;SDS011;47611;54.932;73.338;2022-09-06T01:34:43;12.07;;;6.38;;
60993;SDS011;47611;54.932;73.338;2022-09-06T01:37:15;10.57;;;5.78;;
60993;SDS011;47611;54.932;73.338;2022-09-06T01:39:42;11.65;;;6.50;;
60993;SDS011;47611;54.932;73.338;2022-09-06T01:45:07;18.65;;;7.65;;
60993;SDS011;47611;54.932;73.338;2022-09-06T01:48:22;17.80;;;7.30;;
60993;SDS011;47611;54.932;73.338;2022-09-06T01:53:21;21.33;;;10.02;;
60993;SDS011;47611;54.932;73.338;2022-09-06T01:59:11;26.47;;;14.93;;
60993;SDS011;47611;54.932;73.338;2022-09-06T02:01:57;29.85;;;14.20;;
60993;SDS011;47611;54.932;73.338;2022-09-06T02:07:09;30.23;;;16.17;;
60993;SDS011;47611;54.932;73.338;2022-09-06T02:09:43;26.02;;;15.88;;
60993;SDS011;47611;54.932;73.338;2022-09-06T02:12:11;44.42;;;25.65;;
60993;SDS011;47611;54.932;73.338;2022-09-06T02:14:39;43.05;;;26.25;;
60993;SDS011;47611;54.932;73.338;2022-09-06T02:17:08;42.67;;;24.50;;
60993;SDS011;47611;54.932;73.338;2022-09-06T02:19:38;48.85;;;29.83;;
60993;SDS011;47611;54.932;73.338;2022-09-06T02:22:09;56.97;;;33.60;;
60993;SDS011;47611;54.932;73.338;2022-09-06T02:24:42;51.03;;;30.20;;
60993;SDS011;47611;54.932;73.338;2022-09-06T02:27:19;46.55;;;27.05;;
60993;SDS011;47611;54.932;73.338;2022-09-06T02:29:45;47.72;;;28.55;;
60993;SDS011;47611;54.932;73.338;2022-09-06T02:32:22;58.38;;;33.85;;
60993;SDS011;47611;54.932;73.338;2022-09-06T02:34:49;61.42;;;33.53;;
60993;SDS011;47611;54.932;73.338;2022-09-06T02:37:15;56.58;;;29.17;;
60993;SDS011;47611;54.932;73.338;2022-09-06T02:39:42;71.00;;;36.13;;
60993;SDS011;47611;54.932;73.338;2022-09-06T02:42:08;67.35;;;37.42;;
60993;SDS011;47611;54.932;73.338;2022-09-06T02:44:44;51.10;;;30.05;;
60993;SDS011;47611;54.932;73.338;2022-09-06T02:47:10;50.83;;;26.70;;
60993;SDS011;47611;54.932;73.338;2022-09-06T02:49:36;47.63;;;25.27;;
60993;SDS011;47611;54.932;73.338;2022-09-06T02:52:02;40.47;;;22.27;;
60993;SDS011;47611;54.932;73.338;2022-09-06T02:54:28;43.45;;;25.45;;
60993;SDS011;47611;54.932;73.338;2022-09-06T02:57:05;51.30;;;25.77;;
60993;SDS011;47611;54.932;73.338;2022-09-06T02:59:36;57.58;;;33.13;;
60993;SDS011;47611;54.932;73.338;2022-09-06T03:02:03;60.60;;;33.55;;
60993;SDS011;47611;54.932;73.338;2022-09-06T03:04:29;60.75;;;30.58;;
60993;SDS011;47611;54.932;73.338;2022-09-06T03:07:00;37.55;;;22.08;;
60993;SDS011;47611;54.932;73.338;2022-09-06T03:09:26;32.38;;;17.55;;
60993;SDS011;47611;54.932;73.338;2022-09-06T03:11:52;29.85;;;16.50;;
60993;SDS011;47611;54.932;73.338;2022-09-06T03:14:27;20.55;;;10.23;;
60993;SDS011;47611;54.932;73.338;2022-09-06T03:16:53;16.55;;;9.13;;
60993;SDS011;47611;54.932;73.338;2022-09-06T03:19:19;16.98;;;8.70;;
60993;SDS011;47611;54.932;73.338;2022-09-06T03:21:51;16.85;;;9.23;;
60993;SDS011;47611;54.932;73.338;2022-09-06T03:24:22;17.13;;;8.30;;
60993;SDS011;47611;54.932;73.338;2022-09-06T03:26:48;14.93;;;8.13;;
60993;SDS011;47611;54.932;73.338;2022-09-06T03:29:24;17.92;;;8.82;;
60993;SDS011;47611;54.932;73.338;2022-09-06T03:31:50;19.02;;;8.35;;
60993;SDS011;47611;54.932;73.338;2022-09-06T03:34:16;18.23;;;8.93;;
60993;SDS011;47611;54.932;73.338;2022-09-06T03:36:51;17.35;;;7.97;;
60993;SDS011;47611;54.932;73.338;2022-09-06T03:39:17;16.45;;;8.40;;
60993;SDS011;47611;54.932;73.338;2022-09-06T03:41:46;15.45;;;7.95;;
60993;SDS011;47611;54.932;73.338;2022-09-06T03:44:14;15.90;;;8.82;;
60993;SDS011;47611;54.932;73.338;2022-09-06T03:46:54;22.92;;;11.30;;
60993;SDS011;47611;54.932;73.338;2022-09-06T03:49:24;20.38;;;10.68;;
60993;SDS011;47611;54.932;73.338;2022-09-06T03:51:55;23.25;;;12.55;;
60993;SDS011;47611;54.932;73.338;2022-09-06T03:54:21;51.88;;;18.65;;
60993;SDS011;47611;54.932;73.338;2022-09-06T03:56:49;37.83;;;16.13;;
60993;SDS011;47611;54.932;73.338;2022-09-06T03:59:22;24.20;;;12.15;;
60993;SDS011;47611;54.932;73.338;2022-09-06T04:01:47;20.25;;;10.10;;
60993;SDS011;47611;54.932;73.338;2022-09-06T04:04:13;18.38;;;10.60;;
60993;SDS011;47611;54.932;73.338;2022-09-06T04:06:39;20.05;;;10.90;;
60993;SDS011;47611;54.932;73.338;2022-09-06T04:09:05;22.15;;;9.95;;
60993;SDS011;47611;54.932;73.338;2022-09-06T04:11:37;20.63;;;10.70;;
60993;SDS011;47611;54.932;73.338;2022-09-06T04:14:03;25.60;;;10.85;;
60993;SDS011;47611;54.932;73.338;2022-09-06T04:16:36;25.33;;;10.73;;
60993;SDS011;47611;54.932;73.338;2022-09-06T04:19:02;23.75;;;11.80;;
60993;SDS011;47611;54.932;73.338;2022-09-06T04:21:38;19.25;;;10.75;;
60993;SDS011;47611;54.932;73.338;2022-09-06T04:24:09;21.85;;;10.10;;
60993;SDS011;47611;54.932;73.338;2022-09-06T04:26:35;20.63;;;12.18;;
60993;SDS011;47611;54.932;73.338;2022-09-06T04:29:01;21.08;;;10.90;;
60993;SDS011;47611;54.932;73.338;2022-09-06T04:31:27;24.50;;;14.50;;
60993;SDS011;47611;54.932;73.338;2022-09-06T04:33:53;27.65;;;13.27;;
60993;SDS011;47611;54.932;73.338;2022-09-06T04:36:19;21.42;;;12.18;;
60993;SDS011;47611;54.932;73.338;2022-09-06T04:38:46;22.75;;;14.35;;
60993;SDS011;47611;54.932;73.338;2022-09-06T04:41:19;27.38;;;12.95;;
60993;SDS011;47611;54.932;73.338;2022-09-06T04:43:50;33.70;;;16.60;;
60993;SDS011;47611;54.932;73.338;2022-09-06T04:46:22;38.33;;;16.08;;
60993;SDS011;47611;54.932;73.338;2022-09-06T04:48:50;34.33;;;16.02;;
60993;SDS011;47611;54.932;73.338;2022-09-06T04:51:21;29.73;;;15.25;;
60993;SDS011;47611;54.932;73.338;2022-09-06T04:53:52;31.00;;;15.32;;
60993;SDS011;47611;54.932;73.338;2022-09-06T04:56:19;34.65;;;16.10;;
60993;SDS011;47611;54.932;73.338;2022-09-06T04:58:55;29.55;;;15.95;;
60993;SDS011;47611;54.932;73.338;2022-09-06T05:01:21;20.65;;;14.10;;
60993;SDS011;47611;54.932;73.338;2022-09-06T05:03:47;30.70;;;18.23;;
60993;SDS011;47611;54.932;73.338;2022-09-06T05:06:23;28.08;;;15.63;;
60993;SDS011;47611;54.932;73.338;2022-09-06T05:08:49;26.63;;;15.68;;
60993;SDS011;47611;54.932;73.338;2022-09-06T05:11:26;24.90;;;14.55;;
60993;SDS011;47611;54.932;73.338;2022-09-06T05:13:56;25.15;;;15.18;;
60993;SDS011;47611;54.932;73.338;2022-09-06T05:16:32;35.05;;;18.50;;
60993;SDS011;47611;54.932;73.338;2022-09-06T05:19:08;35.30;;;19.58;;
60993;SDS011;47611;54.932;73.338;2022-09-06T05:21:34;36.88;;;18.67;;
60993;SDS011;47611;54.932;73.338;2022-09-06T05:24:00;37.25;;;19.35;;
60993;SDS011;47611;54.932;73.338;2022-09-06T05:26:35;39.10;;;21.63;;
60993;SDS011;47611;54.932;73.338;2022-09-06T05:29:01;44.25;;;23.20;;
60993;SDS011;47611;54.932;73.338;2022-09-06T05:31:38;51.65;;;25.40;;
60993;SDS011;47611;54.932;73.338;2022-09-06T05:34:04;52.50;;;27.17;;
60993;SDS011;47611;54.932;73.338;2022-09-06T05:36:32;58.50;;;27.70;;
60993;SDS011;47611;54.932;73.338;2022-09-06T05:38:58;52.90;;;26.83;;
60993;SDS011;47611;54.932;73.338;2022-09-06T05:41:24;56.92;;;28.00;;
60993;SDS011;47611;54.932;73.338;2022-09-06T05:43:51;54.10;;;27.52;;
60993;SDS011;47611;54.932;73.338;2022-09-06T05:46:17;60.03;;;28.83;;
60993;SDS011;47611;54.932;73.338;2022-09-06T05:48:51;59.40;;;29.50;;
60993;SDS011;47611;54.932;73.338;2022-09-06T05:51:17;54.85;;;27.70;;
60993;SDS011;47611;54.932;73.338;2022-09-06T05:53:43;53.10;;;26.98;;
60993;SDS011;47611;54.932;73.338;2022-09-06T05:56:19;61.90;;;31.67;;
60993;SDS011;47611;54.932;73.338;2022-09-06T05:58:46;94.43;;;52.60;;
60993;SDS011;47611;54.932;73.338;2022-09-06T06:01:23;49.85;;;25.23;;
60993;SDS011;47611;54.932;73.338;2022-09-06T06:04:02;60.50;;;30.00;;
60993;SDS011;47611;54.932;73.338;2022-09-06T06:06:30;68.07;;;32.60;;
60993;SDS011;47611;54.932;73.338;2022-09-06T06:09:00;63.00;;;30.25;;
60993;SDS011;47611;54.932;73.338;2022-09-06T06:11:36;66.95;;;30.45;;
60993;SDS011;47611;54.932;73.338;2022-09-06T06:14:03;60.53;;;31.65;;
60993;SDS011;47611;54.932;73.338;2022-09-06T06:16:29;65.38;;;30.98;;
60993;SDS011;47611;54.932;73.338;2022-09-06T06:18:55;56.22;;;28.05;;
60993;SDS011;47611;54.932;73.338;2022-09-06T06:21:32;55.58;;;28.17;;
60993;SDS011;47611;54.932;73.338;2022-09-06T06:24:08;52.45;;;28.45;;
60993;SDS011;47611;54.932;73.338;2022-09-06T06:26:34;51.22;;;26.98;;
60993;SDS011;47611;54.932;73.338;2022-09-06T06:29:01;106.53;;;55.63;;
60993;SDS011;47611;54.932;73.338;2022-09-06T06:31:28;112.43;;;69.97;;
60993;SDS011;47611;54.932;73.338;2022-09-06T06:33:59;49.33;;;28.73;;
60993;SDS011;47611;54.932;73.338;2022-09-06T06:36:33;54.53;;;28.10;;
60993;SDS011;47611;54.932;73.338;2022-09-06T06:39:06;45.97;;;25.17;;
60993;SDS011;47611;54.932;73.338;2022-09-06T06:41:40;50.17;;;25.60;;
60993;SDS011;47611;54.932;73.338;2022-09-06T06:44:34;53.53;;;26.67;;
60993;SDS011;47611;54.932;73.338;2022-09-06T06:47:00;44.17;;;24.20;;
60993;SDS011;47611;54.932;73.338;2022-09-06T06:49:27;45.90;;;23.38;;
60993;SDS011;47611;54.932;73.338;2022-09-06T06:51:58;42.30;;;23.93;;
60993;SDS011;47611;54.932;73.338;2022-09-06T06:54:24;38.47;;;21.85;;
60993;SDS011;47611;54.932;73.338;2022-09-06T06:56:50;36.97;;;23.10;;
60993;SDS011;47611;54.932;73.338;2022-09-06T06:59:27;44.22;;;26.20;;
60993;SDS011;47611;54.932;73.338;2022-09-06T07:01:53;34.25;;;19.83;;
60993;SDS011;47611;54.932;73.338;2022-09-06T07:04:23;37.08;;;19.83;;
60993;SDS011;47611;54.932;73.338;2022-09-06T07:06:55;32.33;;;18.48;;
60993;SDS011;47611;54.932;73.338;2022-09-06T07:09:39;36.25;;;21.33;;
60993;SDS011;47611;54.932;73.338;2022-09-06T07:12:05;37.28;;;19.88;;
60993;SDS011;47611;54.932;73.338;2022-09-06T07:14:31;31.65;;;19.95;;
60993;SDS011;47611;54.932;73.338;2022-09-06T07:16:57;33.38;;;19.40;;
60993;SDS011;47611;54.932;73.338;2022-09-06T07:19:24;37.65;;;20.52;;
60993;SDS011;47611;54.932;73.338;2022-09-06T07:21:50;34.55;;;19.60;;
60993;SDS011;47611;54.932;73.338;2022-09-06T07:24:16;34.30;;;18.08;;
60993;SDS011;47611;54.932;73.338;2022-09-06T07:26:42;36.15;;;19.38;;
60993;SDS011;47611;54.932;73.338;2022-09-06T07:29:08;31.88;;;18.35;;
60993;SDS011;47611;54.932;73.338;2022-09-06T07:31:40;32.13;;;17.60;;
60993;SDS011;47611;54.932;73.338;2022-09-06T07:34:06;28.92;;;18.58;;
60993;SDS011;47611;54.932;73.338;2022-09-06T07:36:31;34.85;;;19.98;;
60993;SDS011;47611;54.932;73.338;2022-09-06T07:38:57;35.17;;;19.13;;
60993;SDS011;47611;54.932;73.338;2022-09-06T07:41:33;32.08;;;18.80;;
60993;SDS011;47611;54.932;73.338;2022-09-06T07:43:59;31.95;;;19.10;;
60993;SDS011;47611;54.932;73.338;2022-09-06T07:46:31;35.78;;;20.15;;
60993;SDS011;47611;54.932;73.338;2022-09-06T07:49:07;41.80;;;22.60;;
60993;SDS011;47611;54.932;73.338;2022-09-06T07:51:32;44.78;;;24.05;;
60993;SDS011;47611;54.932;73.338;2022-09-06T07:54:03;45.22;;;24.98;;
60993;SDS011;47611;54.932;73.338;2022-09-06T07:56:30;50.53;;;25.73;;
60993;SDS011;47611;54.932;73.338;2022-09-06T07:59:03;48.10;;;25.58;;
60993;SDS011;47611;54.932;73.338;2022-09-06T08:01:30;47.97;;;25.70;;
60993;SDS011;47611;54.932;73.338;2022-09-06T08:03:57;51.67;;;27.15;;
60993;SDS011;47611;54.932;73.338;2022-09-06T08:06:34;55.17;;;27.33;;
60993;SDS011;47611;54.932;73.338;2022-09-06T08:09:01;58.08;;;27.60;;
60993;SDS011;47611;54.932;73.338;2022-09-06T08:11:28;58.08;;;28.23;;
60993;SDS011;47611;54.932;73.338;2022-09-06T08:14:05;61.40;;;29.55;;
60993;SDS011;47611;54.932;73.338;2022-09-06T08:16:36;65.75;;;30.63;;
60993;SDS011;47611;54.932;73.338;2022-09-06T08:19:04;59.88;;;29.73;;
60993;SDS011;47611;54.932;73.338;2022-09-06T08:21:32;62.15;;;30.13;;
60993;SDS011;47611;54.932;73.338;2022-09-06T08:24:03;64.47;;;30.63;;
60993;SDS011;47611;54.932;73.338;2022-09-06T08:26:30;70.22;;;30.98;;
60993;SDS011;47611;54.932;73.338;2022-09-06T08:28:57;57.10;;;28.75;;
60993;SDS011;47611;54.932;73.338;2022-09-06T08:31:29;57.10;;;27.92;;
60993;SDS011;47611;54.932;73.338;2022-09-06T08:33:56;63.67;;;31.52;;
60993;SDS011;47611;54.932;73.338;2022-09-06T08:36:32;59.60;;;30.10;;
60993;SDS011;47611;54.932;73.338;2022-09-06T08:39:04;75.43;;;34.57;;
60993;SDS011;47611;54.932;73.338;2022-09-06T08:44:20;69.40;;;32.42;;
60993;SDS011;47611;54.932;73.338;2022-09-06T08:49:18;72.60;;;33.05;;
60993;SDS011;47611;54.932;73.338;2022-09-06T08:54:32;61.22;;;30.95;;
60993;SDS011;47611;54.932;73.338;2022-09-06T09:00:01;56.30;;;27.55;;
60993;SDS011;47611;54.932;73.338;2022-09-06T09:02:32;55.22;;;28.70;;
60993;SDS011;47611;54.932;73.338;2022-09-06T09:07:52;61.33;;;30.20;;
60993;SDS011;47611;54.932;73.338;2022-09-06T09:10:27;63.55;;;30.42;;
60993;SDS011;47611;54.932;73.338;2022-09-06T09:12:53;66.20;;;31.33;;
60993;SDS011;47611;54.932;73.338;2022-09-06T09:15:29;65.15;;;32.35;;
60993;SDS011;47611;54.932;73.338;2022-09-06T09:17:55;68.15;;;32.55;;
60993;SDS011;47611;54.932;73.338;2022-09-06T09:20:21;70.25;;;31.40;;
60993;SDS011;47611;54.932;73.338;2022-09-06T09:22:47;67.63;;;32.63;;
60993;SDS011;47611;54.932;73.338;2022-09-06T09:25:23;73.55;;;34.28;;
60993;SDS011;47611;54.932;73.338;2022-09-06T09:27:54;74.90;;;35.15;;
60993;SDS011;47611;54.932;73.338;2022-09-06T09:30:23;78.85;;;33.28;;
60993;SDS011;47611;54.932;73.338;2022-09-06T09:32:59;69.43;;;32.95;;
60993;SDS011;47611;54.932;73.338;2022-09-06T09:37:55;65.78;;;31.15;;
60993;SDS011;47611;54.932;73.338;2022-09-06T09:43:06;61.67;;;32.17;;
60993;SDS011;47611;54.932;73.338;2022-09-06T09:45:33;62.65;;;31.33;;
60993;SDS011;47611;54.932;73.338;2022-09-06T09:48:15;67.93;;;35.25;;
60993;SDS011;47611;54.932;73.338;2022-09-06T09:50:47;70.95;;;35.45;;
60993;SDS011;47611;54.932;73.338;2022-09-06T09:53:16;75.82;;;38.45;;
60993;SDS011;47611;54.932;73.338;2022-09-06T09:55:43;62.17;;;31.33;;
60993;SDS011;47611;54.932;73.338;2022-09-06T09:58:31;75.05;;;36.78;;
60993;SDS011;47611;54.932;73.338;2022-09-06T10:03:39;64.03;;;32.83;;
60993;SDS011;47611;54.932;73.338;2022-09-06T10:06:11;64.18;;;34.45;;
60993;SDS011;47611;54.932;73.338;2022-09-06T10:08:38;75.05;;;38.10;;
60993;SDS011;47611;54.932;73.338;2022-09-06T10:11:14;69.65;;;36.42;;
60993;SDS011;47611;54.932;73.338;2022-09-06T10:13:50;71.30;;;35.83;;
60993;SDS011;47611;54.932;73.338;2022-09-06T10:16:30;71.50;;;36.75;;
60993;SDS011;47611;54.932;73.338;2022-09-06T10:21:58;76.03;;;37.22;;
60993;SDS011;47611;54.932;73.338;2022-09-06T10:24:37;77.95;;;35.72;;
60993;SDS011;47611;54.932;73.338;2022-09-06T10:27:18;65.78;;;32.17;;
60993;SDS011;47611;54.932;73.338;2022-09-06T10:32:40;66.25;;;33.95;;
60993;SDS011;47611;54.932;73.338;2022-09-06T10:35:21;73.32;;;33.67;;
60993;SDS011;47611;54.932;73.338;2022-09-06T10:40:31;61.13;;;31.92;;
60993;SDS011;47611;54.932;73.338;2022-09-06T10:42:59;65.10;;;33.50;;
60993;SDS011;47611;54.932;73.338;2022-09-06T10:45:37;66.13;;;32.17;;
60993;SDS011;47611;54.932;73.338;2022-09-06T10:48:12;64.30;;;32.17;;
60993;SDS011;47611;54.932;73.338;2022-09-06T10:50:53;58.25;;;30.38;;
60993;SDS011;47611;54.932;73.338;2022-09-06T10:55:54;70.97;;;34.50;;
60993;SDS011;47611;54.932;73.338;2022-09-06T10:58:24;63.05;;;33.70;;
60993;SDS011;47611;54.932;73.338;2022-09-06T11:00:55;66.63;;;35.35;;
60993;SDS011;47611;54.932;73.338;2022-09-06T11:05:53;83.97;;;38.17;;
60993;SDS011;47611;54.932;73.338;2022-09-06T11:08:27;74.72;;;37.35;;
60993;SDS011;47611;54.932;73.338;2022-09-06T11:10:54;76.38;;;35.92;;
60993;SDS011;47611;54.932;73.338;2022-09-06T11:13:24;79.40;;;36.10;;
60993;SDS011;47611;54.932;73.338;2022-09-06T11:15:56;78.53;;;36.25;;
60993;SDS011;47611;54.932;73.338;2022-09-06T11:26:29;80.05;;;37.58;;
60993;SDS011;47611;54.932;73.338;2022-09-06T11:28:56;78.82;;;36.42;;
60993;SDS011;47611;54.932;73.338;2022-09-06T11:31:24;84.00;;;35.85;;
60993;SDS011;47611;54.932;73.338;2022-09-06T11:36:49;97.03;;;41.38;;
60993;SDS011;47611;54.932;73.338;2022-09-06T11:42:01;77.07;;;36.15;;
60993;SDS011;47611;54.932;73.338;2022-09-06T11:53:00;83.13;;;38.92;;
60993;SDS011;47611;54.932;73.338;2022-09-06T11:55:45;107.50;;;43.15;;
60993;SDS011;47611;54.932;73.338;2022-09-06T12:00:41;145.55;;;49.90;;
60993;SDS011;47611;54.932;73.338;2022-09-06T12:06:13;139.93;;;50.67;;
60993;SDS011;47611;54.932;73.338;2022-09-06T12:08:40;154.02;;;51.83;;
60993;SDS011;47611;54.932;73.338;2022-09-06T12:13:54;200.63;;;64.28;;
60993;SDS011;47611;54.932;73.338;2022-09-06T12:16:21;185.70;;;63.00;;
60993;SDS011;47611;54.932;73.338;2022-09-06T12:29:46;171.77;;;51.92;;
60993;SDS011;47611;54.932;73.338;2022-09-06T12:32:18;175.68;;;54.38;;
60993;SDS011;47611;54.932;73.338;2022-09-06T12:34:44;184.48;;;56.85;;
60993;SDS011;47611;54.932;73.338;2022-09-06T12:37:11;194.80;;;61.17;;
60993;SDS011;47611;54.932;73.338;2022-09-06T12:39:37;182.52;;;57.25;;
60993;SDS011;47611;54.932;73.338;2022-09-06T12:42:12;186.55;;;57.88;;
60993;SDS011;47611;54.932;73.338;2022-09-06T12:44:40;185.57;;;55.20;;
60993;SDS011;47611;54.932;73.338;2022-09-06T12:47:10;165.02;;;51.63;;
60993;SDS011;47611;54.932;73.338;2022-09-06T12:49:37;179.63;;;56.03;;
60993;SDS011;47611;54.932;73.338;2022-09-06T12:52:09;186.50;;;57.35;;
60993;SDS011;47611;54.932;73.338;2022-09-06T12:54:46;180.20;;;54.70;;
60993;SDS011;47611;54.932;73.338;2022-09-06T12:57:15;180.30;;;58.90;;
60993;SDS011;47611;54.932;73.338;2022-09-06T12:59:47;144.20;;;49.63;;
60993;SDS011;47611;54.932;73.338;2022-09-06T13:02:20;140.20;;;48.22;;
60993;SDS011;47611;54.932;73.338;2022-09-06T13:05:20;129.70;;;45.47;;
60993;SDS011;47611;54.932;73.338;2022-09-06T13:07:40;143.83;;;50.20;;
60993;SDS011;47611;54.932;73.338;2022-09-06T13:10:07;164.10;;;52.70;;
60993;SDS011;47611;54.932;73.338;2022-09-06T13:12:39;171.30;;;52.22;;
60993;SDS011;47611;54.932;73.338;2022-09-06T13:15:12;206.05;;;62.40;;
60993;SDS011;47611;54.932;73.338;2022-09-06T13:17:43;207.82;;;76.28;;
60993;SDS011;47611;54.932;73.338;2022-09-06T13:22:44;115.82;;;43.40;;
60993;SDS011;47611;54.932;73.338;2022-09-06T13:25:15;114.45;;;44.38;;
60993;SDS011;47611;54.932;73.338;2022-09-06T13:27:47;106.10;;;41.15;;
60993;SDS011;47611;54.932;73.338;2022-09-06T13:33:03;94.85;;;35.65;;
60993;SDS011;47611;54.932;73.338;2022-09-06T13:35:39;101.50;;;38.25;;
60993;SDS011;47611;54.932;73.338;2022-09-06T13:38:19;106.70;;;39.33;;
60993;SDS011;47611;54.932;73.338;2022-09-06T13:40:55;113.15;;;39.65;;
60993;SDS011;47611;54.932;73.338;2022-09-06T13:43:26;106.20;;;37.65;;
60993;SDS011;47611;54.932;73.338;2022-09-06T13:46:02;110.90;;;40.42;;
60993;SDS011;47611;54.932;73.338;2022-09-06T13:48:28;122.47;;;40.00;;
60993;SDS011;47611;54.932;73.338;2022-09-06T13:50:54;121.90;;;42.10;;
60993;SDS011;47611;54.932;73.338;2022-09-06T13:53:31;112.15;;;39.85;;
60993;SDS011;47611;54.932;73.338;2022-09-06T13:55:57;118.03;;;40.60;;
60993;SDS011;47611;54.932;73.338;2022-09-06T13:58:29;114.38;;;39.58;;
60993;SDS011;47611;54.932;73.338;2022-09-06T14:01:04;101.63;;;34.92;;
60993;SDS011;47611;54.932;73.338;2022-09-06T14:03:44;117.25;;;38.42;;
60993;SDS011;47611;54.932;73.338;2022-09-06T14:06:19;104.22;;;36.97;;
60993;SDS011;47611;54.932;73.338;2022-09-06T14:08:45;102.55;;;37.53;;
60993;SDS011;47611;54.932;73.338;2022-09-06T14:11:21;103.72;;;35.38;;
60993;SDS011;47611;54.932;73.338;2022-09-06T14:13:47;113.82;;;39.03;;
60993;SDS011;47611;54.932;73.338;2022-09-06T14:16:18;130.93;;;40.58;;
60993;SDS011;47611;54.932;73.338;2022-09-06T14:18:44;125.88;;;40.95;;
60993;SDS011;47611;54.932;73.338;2022-09-06T14:21:10;122.00;;;40.15;;
60993;SDS011;47611;54.932;73.338;2022-09-06T14:23:36;108.43;;;38.20;;
60993;SDS011;47611;54.932;73.338;2022-09-06T14:26:02;96.43;;;35.60;;
60993;SDS011;47611;54.932;73.338;2022-09-06T14:28:34;98.93;;;35.17;;
60993;SDS011;47611;54.932;73.338;2022-09-06T14:31:33;90.68;;;33.55;;
60993;SDS011;47611;54.932;73.338;2022-09-06T14:33:53;94.53;;;33.97;;
60993;SDS011;47611;54.932;73.338;2022-09-06T14:36:20;98.35;;;33.28;;
60993;SDS011;47611;54.932;73.338;2022-09-06T14:38:52;85.72;;;32.67;;
60993;SDS011;47611;54.932;73.338;2022-09-06T14:41:29;93.78;;;33.38;;
60993;SDS011;47611;54.932;73.338;2022-09-06T14:43:57;83.43;;;30.92;;
60993;SDS011;47611;54.932;73.338;2022-09-06T14:46:24;90.88;;;33.67;;
60993;SDS011;47611;54.932;73.338;2022-09-06T14:48:58;78.30;;;30.58;;
60993;SDS011;47611;54.932;73.338;2022-09-06T14:51:24;79.82;;;30.50;;
60993;SDS011;47611;54.932;73.338;2022-09-06T14:53:57;78.25;;;29.38;;
60993;SDS011;47611;54.932;73.338;2022-09-06T14:56:28;78.55;;;30.25;;
60993;SDS011;47611;54.932;73.338;2022-09-06T14:58:57;84.80;;;30.83;;
60993;SDS011;47611;54.932;73.338;2022-09-06T15:01:25;78.22;;;30.35;;
60993;SDS011;47611;54.932;73.338;2022-09-06T15:03:57;68.97;;;28.23;;
60993;SDS011;47611;54.932;73.338;2022-09-06T15:06:23;74.82;;;28.90;;
60993;SDS011;47611;54.932;73.338;2022-09-06T15:08:50;76.90;;;28.70;;
60993;SDS011;47611;54.932;73.338;2022-09-06T15:11:33;77.75;;;28.77;;
60993;SDS011;47611;54.932;73.338;2022-09-06T15:14:00;78.25;;;29.60;;
60993;SDS011;47611;54.932;73.338;2022-09-06T15:16:27;80.22;;;29.92;;
60993;SDS011;47611;54.932;73.338;2022-09-06T15:18:58;83.70;;;30.65;;
60993;SDS011;47611;54.932;73.338;2022-09-06T15:21:24;84.10;;;30.42;;
60993;SDS011;47611;54.932;73.338;2022-09-06T15:24:01;82.38;;;31.52;;
60993;SDS011;47611;54.932;73.338;2022-09-06T15:26:28;79.75;;;30.48;;
60993;SDS011;47611;54.932;73.338;2022-09-06T15:28:54;79.07;;;29.90;;
60993;SDS011;47611;54.932;73.338;2022-09-06T15:31:20;83.85;;;28.10;;
60993;SDS011;47611;54.932;73.338;2022-09-06T15:33:46;91.55;;;31.33;;
60993;SDS011;47611;54.932;73.338;2022-09-06T15:36:16;107.30;;;35.05;;
60993;SDS011;47611;54.932;73.338;2022-09-06T15:38:52;102.97;;;35.50;;
60993;SDS011;47611;54.932;73.338;2022-09-06T15:41:22;105.32;;;35.28;;
60993;SDS011;47611;54.932;73.338;2022-09-06T15:43:50;107.82;;;33.78;;
60993;SDS011;47611;54.932;73.338;2022-09-06T15:46:18;110.20;;;36.03;;
60993;SDS011;47611;54.932;73.338;2022-09-06T15:48:46;106.68;;;35.25;;
60993;SDS011;47611;54.932;73.338;2022-09-06T15:51:22;103.65;;;34.40;;
60993;SDS011;47611;54.932;73.338;2022-09-06T15:53:48;87.72;;;29.88;;
60993;SDS011;47611;54.932;73.338;2022-09-06T15:56:14;84.97;;;29.85;;
60993;SDS011;47611;54.932;73.338;2022-09-06T15:58:40;77.53;;;28.30;;
60993;SDS011;47611;54.932;73.338;2022-09-06T16:01:07;80.07;;;29.88;;
60993;SDS011;47611;54.932;73.338;2022-09-06T16:03:44;102.28;;;32.75;;
60993;SDS011;47611;54.932;73.338;2022-09-06T16:06:22;102.63;;;33.08;;
60993;SDS011;47611;54.932;73.338;2022-09-06T16:09:00;110.60;;;36.17;;
60993;SDS011;47611;54.932;73.338;2022-09-06T16:11:26;86.82;;;29.90;;
60993;SDS011;47611;54.932;73.338;2022-09-06T16:13:53;81.65;;;30.05;;
60993;SDS011;47611;54.932;73.338;2022-09-06T16:16:23;82.20;;;28.65;;
60993;SDS011;47611;54.932;73.338;2022-09-06T16:18:55;74.55;;;27.40;;